Key West, FL

1:09 PM EDT on August 03, 2015 (GMT -0400)
Big Coppitt Key Gulfside | | Change Station
CLOSE
Current Station
Personal Weather Station
Location: Key West, FL
Elevation: 31 ft
Nearby Weather Stations

Elev 31 ft 24.60 °N, 81.67 °W | Updated 9 minutes ago

Overcast
Overcast
96.6 °F
Feels Like 112 °F
N
3.2
Wind Variable Wind from SSE

Today
High -- | Low -- °F
--% Chance of Precip.
Yesterday
High -- | Low -- °F
Precip. -- in
6:55 AM 8:09 PM
Waning Gibbous, 85% visible
Pressure 30.01 in
Visibility 10.0 miles
Clouds Scattered Clouds 2700 ft
Scattered Clouds 12000 ft
Mostly Cloudy 25000 ft
Heat Index 112 °F
Dew Point 77 °F
Humidity 54%
Rainfall 0.00 in
Snow Depth Not available.
UV 9 out of 12
Pollen 4.00 out of 12
Air Quality Not available.
Flu Activity Not available.
METAR KNQX 031653Z 16006KT 10SM SCT027 SCT120 BKN250 32/23 A3001 RMK AO2 SLP162 T03220233 $

More Conditions Fewer Conditions

Pressure 30.01 in
Visibility 10.0 miles
Clouds Scattered Clouds 2700 ft
Scattered Clouds 12000 ft
Mostly Cloudy 25000 ft
Heat Index 112 °F
Dew Point 77 °F
Humidity 54%
Rainfall 0.00 in
Snow Depth Not available.
UV 9 out of 12
Pollen 4.00 out of 12
Air Quality Not available.
Flu Activity Not available.
METAR KNQX 031653Z 16006KT 10SM SCT027 SCT120 BKN250 32/23 A3001 RMK AO2 SLP162 T03220233 $

More Conditions Fewer Conditions

10-Day Weather Forecast

×

Almanac

Astronomy

Aug. 03, 2015 Rise Set
Actual Time
Civil Twilight
Nautical Twilight
Astronomical Twilight
Moon
Length of Visible Light
Length of Day
Tomorrow will be .
, % of the Moon is Illuminated

Today's Extremes

State Highs State Lows

Community

WunderPhotos

Upload Photos

1,843,676 photos uploaded!

WunderBlogs® & News

Nearby

Air Quality

  Air Quality AQ Index Pollutant
Not available.

Snow Depth

Station Depth Elevation

Earthquake Activity

City Distance Mag. Time & Date
Minimum magnitude displayed is 2.5.

Coastal Water Temperatures

Place Temperature

Stations

Nearby Weather Stations

Station Location Temp. Windchill Dew Point Humidity Wind Precip. Elev Updated Type